Time;durP1;ratioP1;P1;durP2;ratioP2;P2;SDS_P1;SDS_P2;PMS_P1;PMS_P2;Temp;Humidity;BMP_temperature;BMP_pressure;BME280_temperature;BME280_humidity;BME280_pressure;Samples;Min_cycle;Max_cycle;Signal;HPM_P1;HPM_P2
2022/07/05 00:01:35;;;;;;;4.90;3.40;;;;;;;;;;5116059;28;20418;-74
2022/07/05 00:04:03;;;;;;;5.67;3.37;;;;;;;;;;5117005;27;20509;-75
2022/07/05 00:06:30;;;;;;;4.10;3.63;;;;;;;;;;5119814;27;20418;-74
2022/07/05 00:08:57;;;;;;;7.40;3.90;;;;;;;;;;5117657;27;20403;-74
2022/07/05 00:11:25;;;;;;;5.50;3.73;;;;;;;;;;5113558;28;20443;-74
2022/07/05 00:13:52;;;;;;;4.17;3.77;;;;;;;;;;5111844;28;20416;-75
2022/07/05 00:16:20;;;;;;;5.47;3.20;;;;;;;;;;5113373;28;20467;-74
2022/07/05 00:18:47;;;;;;;4.60;3.60;;;;;;;;;;5114103;28;20491;-74
2022/07/05 00:21:15;;;;;;;4.43;3.77;;;;;;;;;;5114080;28;20751;-74
2022/07/05 00:23:42;;;;;;;11.10;4.07;;;;;;;;;;5115538;28;20445;-74
2022/07/05 00:26:10;;;;;;;4.47;4.10;;;;;;;;;;5116678;27;20458;-74
2022/07/05 00:28:37;;;;;;;4.13;3.80;;;;;;;;;;5119162;27;20432;-74
2022/07/05 00:31:04;;;;;;;4.43;4.03;;;;;;;;;;5116685;27;20866;-74
2022/07/05 00:33:31;;;;;;;5.00;4.07;;;;;;;;;;5113285;28;20522;-74
2022/07/05 00:35:58;;;;;;;3.90;3.60;;;;;;;;;;5112652;28;20460;-74
2022/07/05 00:38:27;;;;;;;5.73;3.70;;;;;;;;;;5112983;28;20494;-74
2022/07/05 00:40:54;;;;;;;5.97;3.80;;;;;;;;;;5113718;28;20436;-74
2022/07/05 00:43:22;;;;;;;5.33;3.97;;;;;;;;;;5113496;28;20437;-74
2022/07/05 00:45:49;;;;;;;6.47;4.63;;;;;;;;;;5115234;28;20457;-74
2022/07/05 00:48:16;;;;;;;5.30;4.27;;;;;;;;;;5116198;27;20423;-74
2022/07/05 00:50:43;;;;;;;4.50;4.10;;;;;;;;;;5118839;27;20435;-74
2022/07/05 00:53:10;;;;;;;3.87;3.47;;;;;;;;;;5121848;27;20414;-74
2022/07/05 00:55:39;;;;;;;5.93;4.00;;;;;;;;;;5133188;27;20463;-74
2022/07/05 00:58:06;;;;;;;3.70;3.40;;;;;;;;;;5132504;27;20481;-74
2022/07/05 01:00:34;;;;;;;5.70;3.27;;;;;;;;;;5133554;27;20449;-74
2022/07/05 01:03:01;;;;;;;4.23;3.33;;;;;;;;;;5133846;27;20952;-74
2022/07/05 01:05:28;;;;;;;4.60;4.03;;;;;;;;;;5121608;27;20804;-74
2022/07/05 01:07:56;;;;;;;5.40;4.20;;;;;;;;;;5114679;28;20457;-74
2022/07/05 01:10:23;;;;;;;6.50;3.90;;;;;;;;;;5114388;27;20418;-74
2022/07/05 01:12:52;;;;;;;6.07;3.63;;;;;;;;;;5118739;27;20426;-74
2022/07/05 01:15:22;;;;;;;4.83;3.90;;;;;;;;;;5115723;27;20442;-74
2022/07/05 01:17:49;;;;;;;4.30;3.43;;;;;;;;;;5112207;28;20450;-74
2022/07/05 01:20:16;;;;;;;4.83;4.00;;;;;;;;;;5111697;28;20410;-74
2022/07/05 01:22:53;;;;;;;4.40;4.00;;;;;;;;;;5112697;28;20435;-74
2022/07/05 01:25:21;;;;;;;5.70;3.90;;;;;;;;;;5112867;28;20793;-74
2022/07/05 01:27:49;;;;;;;5.10;3.93;;;;;;;;;;5113232;28;20458;-74
2022/07/05 01:30:16;;;;;;;5.33;3.97;;;;;;;;;;5113274;28;20547;-73
2022/07/05 01:32:44;;;;;;;4.27;3.53;;;;;;;;;;5115810;27;20419;-74
2022/07/05 01:35:11;;;;;;;6.30;4.17;;;;;;;;;;5117953;27;20851;-74
2022/07/05 01:37:39;;;;;;;5.33;3.77;;;;;;;;;;5122745;27;20483;-74
2022/07/05 01:40:09;;;;;;;8.13;3.63;;;;;;;;;;5132624;27;20467;-74
2022/07/05 01:42:36;;;;;;;3.80;3.50;;;;;;;;;;5131923;27;20836;-74
2022/07/05 01:45:04;;;;;;;5.93;4.13;;;;;;;;;;5132504;27;20436;-74
2022/07/05 01:47:31;;;;;;;3.70;3.40;;;;;;;;;;5131755;27;20477;-74
2022/07/05 01:49:59;;;;;;;7.17;4.37;;;;;;;;;;5118453;27;20450;-74
2022/07/05 01:52:29;;;;;;;4.00;3.60;;;;;;;;;;5114190;28;20439;-74
2022/07/05 01:54:56;;;;;;;7.20;4.30;;;;;;;;;;5115098;27;20425;-74
2022/07/05 01:57:25;;;;;;;4.20;3.57;;;;;;;;;;5117739;27;20476;-74
2022/07/05 01:59:52;;;;;;;6.37;3.57;;;;;;;;;;5123938;28;20435;-74
2022/07/05 02:02:19;;;;;;;6.00;4.20;;;;;;;;;;5132010;27;20528;-75
2022/07/05 02:04:47;;;;;;;5.10;3.67;;;;;;;;;;5131147;27;20540;-75
2022/07/05 02:07:14;;;;;;;7.07;4.50;;;;;;;;;;5132485;27;20434;-74
2022/07/05 02:09:41;;;;;;;4.83;3.53;;;;;;;;;;5132784;27;20437;-74
2022/07/05 02:12:08;;;;;;;5.60;3.93;;;;;;;;;;5119332;27;20462;-74
2022/07/05 02:14:37;;;;;;;5.47;4.13;;;;;;;;;;5113693;28;20442;-75
2022/07/05 02:17:04;;;;;;;6.10;3.80;;;;;;;;;;5114667;28;20438;-74
2022/07/05 02:19:31;;;;;;;4.43;3.60;;;;;;;;;;5116244;28;20476;-74
2022/07/05 02:21:59;;;;;;;3.90;3.60;;;;;;;;;;5115260;28;20431;-74
2022/07/05 02:24:26;;;;;;;3.53;3.23;;;;;;;;;;5111622;28;20438;-75
2022/07/05 02:26:53;;;;;;;6.37;4.27;;;;;;;;;;5110740;28;20447;-75
2022/07/05 02:29:20;;;;;;;3.80;3.50;;;;;;;;;;5111457;28;20450;-75
2022/07/05 02:31:49;;;;;;;7.30;4.10;;;;;;;;;;5111929;28;20431;-75
2022/07/05 02:34:16;;;;;;;3.90;3.60;;;;;;;;;;5112225;28;20478;-75
2022/07/05 02:36:43;;;;;;;5.70;4.00;;;;;;;;;;5113589;28;20469;-74
2022/07/05 02:39:10;;;;;;;4.83;4.00;;;;;;;;;;5114318;28;20981;-74
2022/07/05 02:41:38;;;;;;;4.70;3.83;;;;;;;;;;5117482;27;20437;-74
2022/07/05 02:44:05;;;;;;;5.77;4.00;;;;;;;;;;5122087;27;20958;-74
2022/07/05 02:46:32;;;;;;;4.90;3.57;;;;;;;;;;5131890;27;20466;-74
2022/07/05 02:49:01;;;;;;;7.57;3.43;;;;;;;;;;5131284;27;20442;-74
2022/07/05 02:51:28;;;;;;;3.90;3.60;;;;;;;;;;5131836;27;20922;-74
2022/07/05 02:53:55;;;;;;;4.27;3.80;;;;;;;;;;5132422;27;20533;-74
2022/07/05 02:56:22;;;;;;;4.53;3.60;;;;;;;;;;5120426;27;20512;-74
2022/07/05 02:58:50;;;;;;;3.50;3.20;;;;;;;;;;5113192;28;20497;-75
2022/07/05 03:01:17;;;;;;;5.00;3.93;;;;;;;;;;5114677;27;20431;-74
2022/07/05 03:03:44;;;;;;;5.57;3.50;;;;;;;;;;5117595;27;20422;-75
2022/07/05 03:06:12;;;;;;;4.30;3.57;;;;;;;;;;5114401;28;20450;-75
2022/07/05 03:08:40;;;;;;;5.87;3.67;;;;;;;;;;5110979;28;21050;-74
2022/07/05 03:11:07;;;;;;;4.17;3.27;;;;;;;;;;5111031;28;20449;-75
2022/07/05 03:13:34;;;;;;;4.27;3.17;;;;;;;;;;5114855;28;20438;-75
2022/07/05 03:16:01;;;;;;;3.23;2.93;;;;;;;;;;5119777;28;20458;-74
2022/07/05 03:18:28;;;;;;;5.50;3.53;;;;;;;;;;5120272;28;20485;-75
2022/07/05 03:20:56;;;;;;;3.77;3.37;;;;;;;;;;5117261;28;20438;-74
2022/07/05 03:23:24;;;;;;;5.73;4.00;;;;;;;;;;5118022;27;20426;-75
2022/07/05 03:25:51;;;;;;;5.10;3.23;;;;;;;;;;5120285;27;20445;-74
2022/07/05 03:28:18;;;;;;;5.73;3.90;;;;;;;;;;5117894;27;20431;-74
2022/07/05 03:30:46;;;;;;;4.47;3.90;;;;;;;;;;5114539;28;20447;-74
2022/07/05 03:33:13;;;;;;;6.20;4.27;;;;;;;;;;5114031;28;20446;-74
2022/07/05 03:35:40;;;;;;;3.97;3.10;;;;;;;;;;5116175;28;20554;-74
2022/07/05 03:38:07;;;;;;;4.10;3.43;;;;;;;;;;5114562;28;20489;-74
2022/07/05 03:40:36;;;;;;;6.17;3.53;;;;;;;;;;5117080;28;20803;-74
2022/07/05 03:43:03;;;;;;;4.10;3.70;;;;;;;;;;5116535;28;20522;-74
2022/07/05 03:45:30;;;;;;;6.70;3.50;;;;;;;;;;5117370;27;20970;-75
2022/07/05 03:47:59;;;;;;;4.63;3.27;;;;;;;;;;5120208;27;20950;-74
2022/07/05 03:50:26;;;;;;;4.57;3.57;;;;;;;;;;5117391;27;20437;-74
2022/07/05 03:52:53;;;;;;;5.00;4.27;;;;;;;;;;5113814;28;20469;-74
2022/07/05 03:55:21;;;;;;;5.77;4.23;;;;;;;;;;5113314;28;20452;-75
2022/07/05 03:57:49;;;;;;;6.00;3.80;;;;;;;;;;5114024;28;20434;-74
2022/07/05 04:00:17;;;;;;;29.17;5.00;;;;;;;;;;5114575;28;20444;-75
2022/07/05 04:02:44;;;;;;;6.70;4.27;;;;;;;;;;5114658;28;20923;-75
2022/07/05 04:05:11;;;;;;;4.83;4.33;;;;;;;;;;5115878;28;20454;-75
2022/07/05 04:07:48;;;;;;;6.53;4.40;;;;;;;;;;5117085;27;20436;-75
2022/07/05 04:10:15;;;;;;;5.60;3.30;;;;;;;;;;5120009;27;20795;-74
2022/07/05 04:12:42;;;;;;;7.00;4.33;;;;;;;;;;5126686;27;20404;-74
2022/07/05 04:15:12;;;;;;;7.27;3.60;;;;;;;;;;5134019;27;20672;-75
2022/07/05 04:17:47;;;;;;;4.53;3.87;;;;;;;;;;5133580;27;20786;-74
2022/07/05 04:20:14;;;;;;;4.23;3.80;;;;;;;;;;5132875;27;20930;-75
2022/07/05 04:22:41;;;;;;;4.40;4.00;;;;;;;;;;5134710;27;20456;-75
2022/07/05 04:27:50;;;;;;;7.23;4.20;;;;;;;;;;5114431;28;20408;-76
2022/07/05 04:30:20;;;;;;;5.40;4.17;;;;;;;;;;5118029;27;20427;-75
2022/07/05 04:32:47;;;;;;;7.00;4.63;;;;;;;;;;5119623;27;20436;-77
2022/07/05 04:35:15;;;;;;;6.37;4.20;;;;;;;;;;5128877;27;20820;-77
2022/07/05 04:37:42;;;;;;;4.80;3.97;;;;;;;;;;5133535;27;20437;-77
2022/07/05 04:40:11;;;;;;;5.37;3.80;;;;;;;;;;5132969;27;20487;-76
2022/07/05 04:42:38;;;;;;;3.43;3.07;;;;;;;;;;5133974;27;20444;-77
2022/07/05 04:45:06;;;;;;;5.30;4.10;;;;;;;;;;5133588;27;20450;-76
2022/07/05 04:47:35;;;;;;;3.60;3.30;;;;;;;;;;5115940;27;20771;-77
2022/07/05 04:50:02;;;;;;;4.70;3.70;;;;;;;;;;5115248;28;20462;-76
2022/07/05 04:52:30;;;;;;;4.20;3.80;;;;;;;;;;5117645;27;20415;-76
2022/07/05 04:54:57;;;;;;;7.00;4.00;;;;;;;;;;5118556;27;20427;-77
2022/07/05 04:57:24;;;;;;;5.07;3.10;;;;;;;;;;5114015;27;20444;-77
2022/07/05 04:59:51;;;;;;;3.27;2.97;;;;;;;;;;5112546;28;20864;-77
2022/07/05 05:02:18;;;;;;;4.70;3.57;;;;;;;;;;5112175;28;20811;-76
2022/07/05 05:04:47;;;;;;;3.17;2.87;;;;;;;;;;5112996;28;20413;-76
2022/07/05 05:07:14;;;;;;;3.70;3.00;;;;;;;;;;5112700;28;20457;-76
2022/07/05 05:09:41;;;;;;;5.10;3.87;;;;;;;;;;5114078;28;20553;-74
2022/07/05 05:12:09;;;;;;;3.47;3.17;;;;;;;;;;5114543;28;20823;-75
2022/07/05 05:14:36;;;;;;;6.50;3.20;;;;;;;;;;5117169;27;20404;-75
2022/07/05 05:17:03;;;;;;;5.60;3.20;;;;;;;;;;5118303;27;20412;-75
2022/07/05 05:19:30;;;;;;;3.77;2.57;;;;;;;;;;5128245;27;20459;-76
2022/07/05 05:21:59;;;;;;;3.43;3.13;;;;;;;;;;5132728;27;20914;-74
2022/07/05 05:24:26;;;;;;;5.60;3.00;;;;;;;;;;5132461;27;20879;-74
2022/07/05 05:26:53;;;;;;;3.20;2.90;;;;;;;;;;5133067;27;20453;-75
2022/07/05 05:29:21;;;;;;;4.97;3.00;;;;;;;;;;5133015;27;20441;-74
2022/07/05 05:31:48;;;;;;;4.93;3.27;;;;;;;;;;5114372;27;20488;-75
2022/07/05 05:34:15;;;;;;;3.20;2.90;;;;;;;;;;5114233;28;20526;-74
2022/07/05 05:36:43;;;;;;;4.80;3.30;;;;;;;;;;5115921;27;20445;-74
2022/07/05 05:39:11;;;;;;;4.07;3.00;;;;;;;;;;5116978;27;20478;-74
2022/07/05 05:41:38;;;;;;;5.40;2.87;;;;;;;;;;5114095;27;20439;-75
2022/07/05 05:44:06;;;;;;;4.60;2.53;;;;;;;;;;5111968;28;20449;-75
2022/07/05 05:46:33;;;;;;;5.80;3.23;;;;;;;;;;5111221;28;20470;-74
2022/07/05 05:49:00;;;;;;;3.93;2.60;;;;;;;;;;5112070;28;20444;-74
2022/07/05 05:51:28;;;;;;;3.53;2.60;;;;;;;;;;5112210;28;20438;-74
2022/07/05 05:53:55;;;;;;;3.20;2.50;;;;;;;;;;5112946;28;20943;-74
2022/07/05 05:56:24;;;;;;;3.93;2.90;;;;;;;;;;5113963;28;20813;-74
2022/07/05 05:58:51;;;;;;;3.00;2.20;;;;;;;;;;5115128;28;20501;-74
2022/07/05 06:01:19;;;;;;;3.60;2.53;;;;;;;;;;5117900;27;20441;-74
2022/07/05 06:03:46;;;;;;;3.27;2.43;;;;;;;;;;5115314;27;20434;-74
2022/07/05 06:06:13;;;;;;;4.97;2.60;;;;;;;;;;5111400;28;20462;-75
2022/07/05 06:08:40;;;;;;;4.20;2.70;;;;;;;;;;5111165;28;20547;-76
2022/07/05 06:11:07;;;;;;;3.40;2.60;;;;;;;;;;5111792;28;20533;-79
2022/07/05 06:13:36;;;;;;;3.90;2.30;;;;;;;;;;5112558;28;20794;-76
2022/07/05 06:16:03;;;;;;;5.77;2.80;;;;;;;;;;5112297;28;20462;-75
2022/07/05 06:18:31;;;;;;;4.07;2.70;;;;;;;;;;5114334;28;21026;-76
2022/07/05 06:20:58;;;;;;;5.20;2.63;;;;;;;;;;5114230;28;20534;-77
2022/07/05 06:23:25;;;;;;;5.70;2.70;;;;;;;;;;5117525;28;20441;-76
2022/07/05 06:25:52;;;;;;;4.00;2.27;;;;;;;;;;5120498;28;20442;-78
2022/07/05 06:28:19;;;;;;;4.20;3.23;;;;;;;;;;5131524;27;20434;-77
2022/07/05 06:30:48;;;;;;;4.43;2.97;;;;;;;;;;5132187;27;20584;-81
2022/07/05 06:33:15;;;;;;;5.53;2.60;;;;;;;;;;5133140;27;20882;-75
2022/07/05 06:35:42;;;;;;;3.23;2.30;;;;;;;;;;5132447;27;20552;-74
2022/07/05 06:38:10;;;;;;;7.27;2.77;;;;;;;;;;5124737;27;20516;-73
2022/07/05 06:40:39;;;;;;;4.23;2.50;;;;;;;;;;5113784;28;20493;-74
2022/07/05 06:43:07;;;;;;;3.10;2.13;;;;;;;;;;5113645;28;20438;-73
2022/07/05 06:45:34;;;;;;;5.40;2.70;;;;;;;;;;5117454;27;20796;-73
2022/07/05 06:48:03;;;;;;;4.73;2.27;;;;;;;;;;5118535;28;20529;-73
2022/07/05 06:50:31;;;;;;;4.10;2.17;;;;;;;;;;5132904;27;20528;-77
2022/07/05 06:52:58;;;;;;;5.63;2.03;;;;;;;;;;5134007;27;20445;-74
2022/07/05 06:55:27;;;;;;;5.07;3.10;;;;;;;;;;5136123;27;20465;-73
2022/07/05 06:57:58;;;;;;;5.23;2.17;;;;;;;;;;5136313;27;20807;-74
2022/07/05 07:00:26;;;;;;;2.77;2.13;;;;;;;;;;5129185;27;20971;-74
2022/07/05 07:02:53;;;;;;;2.93;1.83;;;;;;;;;;5117328;28;20863;-74
2022/07/05 07:05:21;;;;;;;3.23;2.33;;;;;;;;;;5117330;28;20466;-71
2022/07/05 07:10:30;;;;;;;2.47;2.27;;;;;;;;;;5119600;27;20511;-74
2022/07/05 07:12:57;;;;;;;5.50;3.33;;;;;;;;;;5113980;28;20434;-75
2022/07/05 07:15:24;;;;;;;5.47;2.60;;;;;;;;;;5113927;28;20461;-74
2022/07/05 07:17:52;;;;;;;3.77;2.40;;;;;;;;;;5114860;28;20444;-73
2022/07/05 07:20:19;;;;;;;5.87;3.03;;;;;;;;;;5115052;28;20482;-73
2022/07/05 07:22:48;;;;;;;6.10;2.63;;;;;;;;;;5115535;28;20977;-73
2022/07/05 07:25:15;;;;;;;2.53;1.97;;;;;;;;;;5116837;27;20545;-73
2022/07/05 07:27:43;;;;;;;3.57;2.37;;;;;;;;;;5117025;27;20470;-73
2022/07/05 07:30:11;;;;;;;4.23;2.80;;;;;;;;;;5120531;27;20460;-73
2022/07/05 07:32:38;;;;;;;2.93;2.40;;;;;;;;;;5122959;27;20431;-73
2022/07/05 07:35:06;;;;;;;3.93;2.70;;;;;;;;;;5134168;27;20453;-73
2022/07/05 07:37:33;;;;;;;3.17;2.87;;;;;;;;;;5134262;27;20438;-73
2022/07/05 07:40:02;;;;;;;6.13;2.80;;;;;;;;;;5134741;27;20473;-73
2022/07/05 07:42:29;;;;;;;5.17;2.83;;;;;;;;;;5135439;27;20872;-74
2022/07/05 07:44:57;;;;;;;3.60;2.67;;;;;;;;;;5126214;27;20458;-74
2022/07/05 07:47:24;;;;;;;6.13;2.70;;;;;;;;;;5116489;28;20442;-74
2022/07/05 07:49:51;;;;;;;4.63;2.50;;;;;;;;;;5116222;27;20438;-74
2022/07/05 07:52:18;;;;;;;2.60;2.40;;;;;;;;;;5119923;27;20434;-74
2022/07/05 07:54:46;;;;;;;4.40;2.60;;;;;;;;;;5119889;27;20433;-74
2022/07/05 07:57:14;;;;;;;2.50;2.30;;;;;;;;;;5113171;28;20438;-74
2022/07/05 07:59:41;;;;;;;4.90;2.57;;;;;;;;;;5112960;28;20489;-74
2022/07/05 08:02:10;;;;;;;4.50;2.77;;;;;;;;;;5113123;28;20450;-74
2022/07/05 08:04:37;;;;;;;6.63;2.80;;;;;;;;;;5114167;28;20431;-75
2022/07/05 08:07:04;;;;;;;2.77;2.33;;;;;;;;;;5114033;28;20458;-74
2022/07/05 08:09:32;;;;;;;4.10;2.07;;;;;;;;;;5116455;28;20956;-73
2022/07/05 08:11:59;;;;;;;6.00;2.87;;;;;;;;;;5115968;28;20435;-75
2022/07/05 08:14:28;;;;;;;4.00;2.67;;;;;;;;;;5119471;27;20430;-74
2022/07/05 08:16:55;;;;;;;4.47;2.60;;;;;;;;;;5119921;27;20930;-74
2022/07/05 08:22:03;;;;;;;4.93;2.50;;;;;;;;;;5112372;28;20856;-73
2022/07/05 08:24:30;;;;;;;2.20;1.80;;;;;;;;;;5113503;28;20437;-74
2022/07/05 08:26:58;;;;;;;3.43;2.33;;;;;;;;;;5113730;28;20435;-73
2022/07/05 08:29:25;;;;;;;5.30;2.90;;;;;;;;;;5113845;28;20442;-73
2022/07/05 08:31:54;;;;;;;3.90;2.10;;;;;;;;;;5115643;28;20856;-73
2022/07/05 08:34:21;;;;;;;3.33;1.97;;;;;;;;;;5115270;28;20618;-74
2022/07/05 08:36:49;;;;;;;4.20;2.00;;;;;;;;;;5119411;27;20449;-72
2022/07/05 08:39:16;;;;;;;3.33;2.10;;;;;;;;;;5119143;27;20457;-73
2022/07/05 08:41:44;;;;;;;2.00;1.80;;;;;;;;;;5131755;27;20450;-73
2022/07/05 08:44:15;;;;;;;3.37;2.20;;;;;;;;;;5131600;27;20442;-73
2022/07/05 08:46:43;;;;;;;4.63;2.70;;;;;;;;;;5133429;27;20984;-73
2022/07/05 08:49:12;;;;;;;3.67;2.17;;;;;;;;;;5134245;27;20852;-75
2022/07/05 08:51:40;;;;;;;3.50;2.20;;;;;;;;;;5125270;27;20474;-74
2022/07/05 08:54:07;;;;;;;4.20;2.57;;;;;;;;;;5115603;28;20442;-75
2022/07/05 08:56:36;;;;;;;3.10;2.50;;;;;;;;;;5115153;27;20515;-74
2022/07/05 08:59:04;;;;;;;3.30;1.87;;;;;;;;;;5118813;27;20439;-74
2022/07/05 09:01:34;;;;;;;2.97;1.97;;;;;;;;;;5121141;27;20477;-73
2022/07/05 09:04:02;;;;;;;2.93;1.97;;;;;;;;;;5132597;27;20430;-74
2022/07/05 09:06:32;;;;;;;2.90;1.83;;;;;;;;;;5132440;27;20461;-75
2022/07/05 09:09:00;;;;;;;5.40;2.27;;;;;;;;;;5133289;27;20433;-74
2022/07/05 09:11:32;;;;;;;4.80;2.00;;;;;;;;;;5133421;27;20783;-74
2022/07/05 09:13:59;;;;;;;2.97;2.20;;;;;;;;;;5123020;27;20442;-74
2022/07/05 09:16:26;;;;;;;3.80;1.90;;;;;;;;;;5114622;28;20457;-74
2022/07/05 09:18:55;;;;;;;2.53;2.00;;;;;;;;;;5114566;27;20443;-74
2022/07/05 09:21:23;;;;;;;8.97;2.63;;;;;;;;;;5109598;27;20510;-75
2022/07/05 09:24:00;;;;;;;2.90;1.77;;;;;;;;;;5117503;27;20426;-73
2022/07/05 09:26:32;;;;;;;3.07;2.20;;;;;;;;;;5111890;28;20461;-75
2022/07/05 09:29:00;;;;;;;4.67;2.30;;;;;;;;;;5111552;28;20464;-74
2022/07/05 09:31:28;;;;;;;2.83;2.20;;;;;;;;;;5112373;28;20495;-74
2022/07/05 09:33:55;;;;;;;3.67;2.10;;;;;;;;;;5112693;28;20466;-74
2022/07/05 09:36:22;;;;;;;2.40;2.20;;;;;;;;;;5112940;28;20481;-74
2022/07/05 09:38:51;;;;;;;4.37;2.67;;;;;;;;;;5116373;27;20588;-74
2022/07/05 09:41:21;;;;;;;6.03;2.67;;;;;;;;;;5118114;27;20483;-74
2022/07/05 09:43:48;;;;;;;4.80;2.90;;;;;;;;;;5127246;27;20434;-74
2022/07/05 09:46:15;;;;;;;5.87;3.10;;;;;;;;;;5132622;27;21138;-74
2022/07/05 09:48:53;;;;;;;3.00;2.60;;;;;;;;;;5131855;27;20445;-74
2022/07/05 09:51:20;;;;;;;3.57;2.43;;;;;;;;;;5132853;27;20941;-74
2022/07/05 09:53:48;;;;;;;5.47;2.33;;;;;;;;;;5132528;27;20524;-75
2022/07/05 09:56:17;;;;;;;2.63;2.40;;;;;;;;;;5113086;28;20454;-74
2022/07/05 09:58:46;;;;;;;4.30;2.73;;;;;;;;;;5114161;28;20976;-73
2022/07/05 10:01:24;;;;;;;6.67;3.17;;;;;;;;;;5116180;27;20977;-75
2022/07/05 10:03:53;;;;;;;7.43;2.60;;;;;;;;;;5117629;27;20442;-74
2022/07/05 10:06:20;;;;;;;3.50;2.83;;;;;;;;;;5112593;28;20470;-74
2022/07/05 10:08:48;;;;;;;4.57;2.43;;;;;;;;;;5111309;28;20435;-74
2022/07/05 10:11:16;;;;;;;4.03;2.60;;;;;;;;;;5111338;28;20521;-74
2022/07/05 10:13:43;;;;;;;3.33;2.50;;;;;;;;;;5112163;28;20446;-74
2022/07/05 10:16:12;;;;;;;2.60;2.37;;;;;;;;;;5111054;28;20996;-74
2022/07/05 10:18:40;;;;;;;3.57;2.10;;;;;;;;;;5113868;28;20761;-74
2022/07/05 10:21:08;;;;;;;2.20;2.00;;;;;;;;;;5113841;28;20488;-74
2022/07/05 10:23:37;;;;;;;3.40;2.10;;;;;;;;;;5116650;28;20435;-74
2022/07/05 10:26:06;;;;;;;4.00;2.33;;;;;;;;;;5121778;27;21012;-74
2022/07/05 10:28:33;;;;;;;2.80;1.90;;;;;;;;;;5116189;27;20434;-74
2022/07/05 10:31:01;;;;;;;2.40;2.20;;;;;;;;;;5115093;28;20466;-73
2022/07/05 10:33:29;;;;;;;2.60;1.90;;;;;;;;;;5115691;28;20836;-74
2022/07/05 10:35:57;;;;;;;4.13;2.10;;;;;;;;;;5116038;28;20497;-75
2022/07/05 10:38:25;;;;;;;3.93;1.90;;;;;;;;;;5114976;28;20477;-74
2022/07/05 10:40:54;;;;;;;3.70;2.30;;;;;;;;;;5117581;28;20484;-74
2022/07/05 10:43:22;;;;;;;3.90;1.90;;;;;;;;;;5117723;28;20442;-74
2022/07/05 10:45:51;;;;;;;3.67;2.43;;;;;;;;;;5119314;27;20485;-74
2022/07/05 10:48:19;;;;;;;3.73;1.93;;;;;;;;;;5121480;27;20426;-73
2022/07/05 10:50:49;;;;;;;4.53;1.87;;;;;;;;;;5132288;27;20445;-74
2022/07/05 10:53:17;;;;;;;3.37;2.20;;;;;;;;;;5134910;27;20994;-74
2022/07/05 10:55:54;;;;;;;2.70;2.30;;;;;;;;;;5135441;27;21037;-74
2022/07/05 10:58:22;;;;;;;3.70;2.13;;;;;;;;;;5136404;27;20532;-75
2022/07/05 11:00:50;;;;;;;2.60;2.13;;;;;;;;;;5126065;27;20485;-74
2022/07/05 11:03:32;;;;;;;3.30;2.70;;;;;;;;;;5096919;28;20435;-74
2022/07/05 11:06:00;;;;;;;3.03;2.30;;;;;;;;;;5096603;28;20458;-74
2022/07/05 11:08:28;;;;;;;3.20;2.20;;;;;;;;;;5120222;27;20437;-74
2022/07/05 11:11:09;;;;;;;3.67;1.80;;;;;;;;;;5120937;27;20430;-74
2022/07/05 11:13:38;;;;;;;3.57;2.07;;;;;;;;;;5114237;28;20526;-74
2022/07/05 11:16:20;;;;;;;3.20;1.63;;;;;;;;;;5108944;28;20466;-76
2022/07/05 11:18:47;;;;;;;4.53;2.00;;;;;;;;;;5109823;28;20446;-77
2022/07/05 11:21:19;;;;;;;4.93;1.83;;;;;;;;;;5111730;28;20829;-76
2022/07/05 11:23:47;;;;;;;2.30;2.10;;;;;;;;;;5111491;28;20456;-77
2022/07/05 11:26:15;;;;;;;4.30;2.13;;;;;;;;;;5116632;27;20489;-74
2022/07/05 11:28:43;;;;;;;3.10;1.90;;;;;;;;;;5116894;27;20456;-75
2022/07/05 11:31:11;;;;;;;2.00;1.77;;;;;;;;;;5129964;27;20796;-76
2022/07/05 11:33:40;;;;;;;2.53;1.73;;;;;;;;;;5131133;27;20533;-73
2022/07/05 11:36:08;;;;;;;3.23;2.20;;;;;;;;;;5130529;27;20473;-74
2022/07/05 11:38:56;;;;;;;4.50;1.67;;;;;;;;;;5131462;27;20565;-73
2022/07/05 11:41:24;;;;;;;4.13;2.10;;;;;;;;;;5115202;27;20486;-76
2022/07/05 11:43:58;;;;;;;3.03;2.10;;;;;;;;;;5092100;28;20925;-75
2022/07/05 11:46:25;;;;;;;2.87;2.27;;;;;;;;;;5093928;27;20979;-75
2022/07/05 11:48:53;;;;;;;3.87;2.00;;;;;;;;;;5119428;27;20422;-74
2022/07/05 11:51:20;;;;;;;3.60;2.00;;;;;;;;;;5120194;27;20500;-74
2022/07/05 11:53:49;;;;;;;4.20;1.97;;;;;;;;;;5113871;28;20439;-75
2022/07/05 11:56:16;;;;;;;5.60;2.10;;;;;;;;;;5113056;28;20462;-75
2022/07/05 11:58:43;;;;;;;6.33;2.17;;;;;;;;;;5114203;28;20801;-75
2022/07/05 12:01:10;;;;;;;4.27;1.90;;;;;;;;;;5114449;28;20482;-75
2022/07/05 12:03:39;;;;;;;4.03;2.00;;;;;;;;;;5114295;28;20517;-74
2022/07/05 12:06:14;;;;;;;4.80;1.90;;;;;;;;;;5116159;28;20545;-74
2022/07/05 12:08:41;;;;;;;2.83;1.90;;;;;;;;;;5116085;28;20438;-74
2022/07/05 12:13:52;;;;;;;3.03;1.77;;;;;;;;;;5122153;27;20429;-75
2022/07/05 12:16:19;;;;;;;5.33;1.83;;;;;;;;;;5133513;27;20989;-76
2022/07/05 12:18:51;;;;;;;5.93;2.20;;;;;;;;;;5133416;27;20516;-75
2022/07/05 12:21:20;;;;;;;2.60;1.70;;;;;;;;;;5134052;27;20509;-75
2022/07/05 12:23:47;;;;;;;5.17;2.00;;;;;;;;;;5133626;27;20437;-75
2022/07/05 12:26:16;;;;;;;2.30;2.00;;;;;;;;;;5124098;27;20569;-75
2022/07/05 12:28:44;;;;;;;3.80;2.10;;;;;;;;;;5114570;28;20443;-75
2022/07/05 12:31:19;;;;;;;2.10;1.70;;;;;;;;;;5115973;27;20529;-75
2022/07/05 12:33:46;;;;;;;1.97;1.80;;;;;;;;;;5118132;27;20466;-75
2022/07/05 12:36:14;;;;;;;4.67;2.00;;;;;;;;;;5122451;27;20540;-76
2022/07/05 12:38:41;;;;;;;2.10;1.90;;;;;;;;;;5132923;27;20461;-75
2022/07/05 12:41:09;;;;;;;5.43;1.93;;;;;;;;;;5133094;27;20481;-75
2022/07/05 12:43:51;;;;;;;6.30;2.03;;;;;;;;;;5133967;27;20433;-75
2022/07/05 12:46:18;;;;;;;2.53;1.53;;;;;;;;;;5133048;27;20544;-75
2022/07/05 12:48:46;;;;;;;5.60;1.50;;;;;;;;;;5121666;27;20448;-75
2022/07/05 12:51:13;;;;;;;2.47;1.87;;;;;;;;;;5115320;28;20435;-75
2022/07/05 12:59:11;;;;;;;4.83;1.77;;;;;;;;;;5115385;27;20418;-75
2022/07/05 13:01:39;;;;;;;4.00;1.67;;;;;;;;;;5112785;28;20846;-75
2022/07/05 13:04:08;;;;;;;3.67;1.90;;;;;;;;;;5111923;28;20430;-75
2022/07/05 13:06:44;;;;;;;2.20;1.70;;;;;;;;;;5112718;28;20854;-77
2022/07/05 13:09:11;;;;;;;2.60;1.70;;;;;;;;;;5112917;28;20442;-76
2022/07/05 13:11:39;;;;;;;3.50;1.90;;;;;;;;;;5109190;28;20490;-76
2022/07/05 13:14:06;;;;;;;3.77;1.73;;;;;;;;;;5093254;28;20471;-76
2022/07/05 13:16:34;;;;;;;3.00;2.13;;;;;;;;;;5103969;27;20457;-76
2022/07/05 13:19:09;;;;;;;3.73;1.60;;;;;;;;;;5118336;27;20440;-75
2022/07/05 13:21:37;;;;;;;5.40;1.80;;;;;;;;;;5125598;27;20483;-75
2022/07/05 13:24:04;;;;;;;3.40;1.90;;;;;;;;;;5132732;27;20999;-75
2022/07/05 13:26:31;;;;;;;6.20;2.00;;;;;;;;;;5132086;27;20812;-75
2022/07/05 13:28:59;;;;;;;3.10;1.57;;;;;;;;;;5132993;27;20516;-75
2022/07/05 13:31:28;;;;;;;1.90;1.60;;;;;;;;;;5133251;27;20541;-75
2022/07/05 13:33:57;;;;;;;3.93;2.00;;;;;;;;;;5116669;27;20439;-76
2022/07/05 13:36:24;;;;;;;4.27;1.80;;;;;;;;;;5114294;28;21054;-76
2022/07/05 13:38:51;;;;;;;1.80;1.57;;;;;;;;;;5115803;27;21117;-75
2022/07/05 13:41:18;;;;;;;1.90;1.70;;;;;;;;;;5118296;27;20469;-76
2022/07/05 13:43:45;;;;;;;2.00;1.80;;;;;;;;;;5124901;27;20441;-76
2022/07/05 13:46:13;;;;;;;2.63;1.93;;;;;;;;;;5132871;27;20496;-76
2022/07/05 13:48:40;;;;;;;3.87;2.00;;;;;;;;;;5131747;27;20437;-75
2022/07/05 13:51:09;;;;;;;4.50;2.03;;;;;;;;;;5132779;27;20536;-75
2022/07/05 13:53:36;;;;;;;2.00;1.70;;;;;;;;;;5133053;27;20528;-75
2022/07/05 13:56:04;;;;;;;4.30;1.83;;;;;;;;;;5117049;27;20971;-75
2022/07/05 13:58:31;;;;;;;7.13;2.33;;;;;;;;;;5113686;28;20541;-78
2022/07/05 14:00:58;;;;;;;4.23;2.07;;;;;;;;;;5114912;27;20469;-76
2022/07/05 14:03:26;;;;;;;2.10;1.70;;;;;;;;;;5117691;27;20470;-75
2022/07/05 14:05:53;;;;;;;6.23;2.10;;;;;;;;;;5123123;28;20532;-74
2022/07/05 14:08:22;;;;;;;4.20;2.10;;;;;;;;;;5132354;27;20442;-75
2022/07/05 14:10:51;;;;;;;2.47;2.10;;;;;;;;;;5131565;27;20445;-74
2022/07/05 14:13:18;;;;;;;3.23;2.00;;;;;;;;;;5132379;27;20554;-75
2022/07/05 14:15:47;;;;;;;5.90;2.00;;;;;;;;;;5132633;27;20818;-75
2022/07/05 14:18:14;;;;;;;3.90;1.97;;;;;;;;;;5118435;27;20434;-74
2022/07/05 14:20:42;;;;;;;4.27;1.90;;;;;;;;;;5113951;28;20442;-75
2022/07/05 14:23:09;;;;;;;1.90;1.80;;;;;;;;;;5114921;28;20572;-75
2022/07/05 14:25:38;;;;;;;5.00;2.10;;;;;;;;;;5117322;27;20446;-75
2022/07/05 14:28:07;;;;;;;3.00;1.80;;;;;;;;;;5121812;27;20909;-74
2022/07/05 14:30:34;;;;;;;2.50;2.30;;;;;;;;;;5131896;27;20610;-74
2022/07/05 14:33:02;;;;;;;3.10;2.03;;;;;;;;;;5131215;27;20946;-74
2022/07/05 14:35:29;;;;;;;3.50;2.50;;;;;;;;;;5132147;27;20461;-74
2022/07/05 14:37:56;;;;;;;3.93;1.93;;;;;;;;;;5132636;27;20455;-73
2022/07/05 14:40:24;;;;;;;4.83;2.87;;;;;;;;;;5119874;27;21088;-74
2022/07/05 14:42:53;;;;;;;2.67;2.37;;;;;;;;;;5112444;28;20505;-75
2022/07/05 14:45:20;;;;;;;3.47;1.90;;;;;;;;;;5114148;28;20451;-75
2022/07/05 14:47:47;;;;;;;3.83;2.40;;;;;;;;;;5117501;27;20945;-75
2022/07/05 14:50:15;;;;;;;5.30;2.20;;;;;;;;;;5120689;28;20440;-75
2022/07/05 14:52:42;;;;;;;2.90;2.30;;;;;;;;;;5131540;27;20449;-76
2022/07/05 14:55:10;;;;;;;3.20;1.80;;;;;;;;;;5129625;28;20463;-75
2022/07/05 14:57:38;;;;;;;2.93;1.80;;;;;;;;;;5131599;27;20437;-76
2022/07/05 15:00:08;;;;;;;3.33;1.80;;;;;;;;;;5131068;28;20472;-75
2022/07/05 15:02:35;;;;;;;3.53;1.90;;;;;;;;;;5121399;27;20485;-75
2022/07/05 15:05:02;;;;;;;3.90;2.07;;;;;;;;;;5117482;27;20537;-75